createdAt,value
2017-07-05T00:00:18.402Z,6.47
2017-07-05T00:02:45.821Z,6.33
2017-07-05T00:05:13.268Z,5.27
2017-07-05T00:07:40.696Z,6.30
2017-07-05T00:10:08.128Z,6.53
2017-07-05T00:12:35.567Z,6.33
2017-07-05T00:15:02.985Z,6.60
2017-07-05T00:17:31.190Z,5.67
2017-07-05T00:19:58.636Z,5.70
2017-07-05T00:22:26.055Z,5.10
2017-07-05T00:24:53.526Z,6.03
2017-07-05T00:27:21.701Z,5.30
2017-07-05T00:29:49.153Z,6.00
2017-07-05T00:32:16.629Z,5.60
2017-07-05T00:34:44.053Z,6.20
2017-07-05T00:37:12.243Z,6.13
2017-07-05T00:39:39.671Z,6.37
2017-07-05T00:42:07.165Z,6.43
2017-07-05T00:44:34.594Z,5.83
2017-07-05T00:47:02.034Z,5.60
2017-07-05T00:49:29.479Z,5.97
2017-07-05T00:51:56.909Z,6.17
2017-07-05T00:54:24.341Z,5.73
2017-07-05T00:56:52.316Z,5.90
2017-07-05T00:59:19.780Z,5.80
2017-07-05T01:01:47.209Z,5.63
2017-07-05T01:04:14.669Z,5.87
2017-07-05T01:06:42.101Z,6.17
2017-07-05T01:09:09.540Z,5.63
2017-07-05T01:11:36.982Z,6.10
2017-07-05T01:14:04.517Z,5.33
2017-07-05T01:16:31.932Z,5.93
2017-07-05T01:18:59.364Z,6.13
2017-07-05T01:21:26.801Z,5.17
2017-07-05T01:23:54.233Z,6.30
2017-07-05T01:26:22.507Z,5.80
2017-07-05T01:28:49.929Z,6.00
2017-07-05T01:31:18.132Z,6.33
2017-07-05T01:33:45.573Z,6.53
2017-07-05T01:36:13.004Z,6.33
2017-07-05T01:38:40.555Z,6.33
2017-07-05T01:41:07.984Z,6.20
2017-07-05T01:43:36.213Z,6.50
2017-07-05T01:46:03.672Z,6.00
2017-07-05T01:48:31.873Z,6.30
2017-07-05T01:50:59.313Z,5.63
2017-07-05T01:53:26.745Z,6.77
2017-07-05T01:55:54.172Z,5.87
2017-07-05T01:58:21.621Z,6.90
2017-07-05T02:00:49.849Z,6.20
2017-07-05T02:03:17.301Z,6.70
2017-07-05T02:05:45.493Z,6.50
2017-07-05T02:08:12.938Z,6.00
2017-07-05T02:10:40.416Z,6.90
2017-07-05T02:13:07.856Z,7.53
2017-07-05T02:15:35.289Z,6.37
2017-07-05T02:18:02.728Z,6.03
2017-07-05T02:20:30.201Z,6.80
2017-07-05T02:22:57.633Z,7.37
2017-07-05T02:25:25.082Z,7.40
2017-07-05T02:27:52.514Z,7.70
2017-07-05T02:30:19.950Z,6.97
2017-07-05T02:32:47.376Z,7.50
2017-07-05T02:35:14.812Z,7.07
2017-07-05T02:37:42.244Z,7.53
2017-07-05T02:40:09.676Z,8.40
2017-07-05T02:42:37.105Z,7.80
2017-07-05T02:45:04.534Z,7.33
2017-07-05T02:47:31.964Z,7.83
2017-07-05T02:49:59.404Z,7.17
2017-07-05T02:52:26.847Z,7.40
2017-07-05T02:54:54.304Z,7.30
2017-07-05T02:57:21.744Z,7.30
2017-07-05T02:59:49.175Z,7.60
2017-07-05T03:02:16.621Z,8.03
2017-07-05T03:04:44.049Z,7.87
2017-07-05T03:07:11.485Z,7.67
2017-07-05T03:09:38.913Z,8.20
2017-07-05T03:12:06.359Z,7.90
2017-07-05T03:14:33.788Z,8.97
2017-07-05T03:17:01.230Z,7.30
2017-07-05T03:19:28.663Z,7.60
2017-07-05T03:21:56.095Z,8.00
2017-07-05T03:24:24.262Z,7.67
2017-07-05T03:26:51.697Z,8.03
2017-07-05T03:29:19.123Z,7.97
2017-07-05T03:31:46.559Z,8.53
2017-07-05T03:34:13.989Z,7.80
2017-07-05T03:36:41.432Z,9.60
2017-07-05T03:39:08.877Z,7.80
2017-07-05T03:41:36.321Z,7.77
2017-07-05T03:44:03.815Z,8.53
2017-07-05T03:46:31.276Z,9.30
2017-07-05T03:48:58.715Z,7.80
2017-07-05T03:51:27.125Z,8.70
2017-07-05T03:53:55.333Z,8.10
2017-07-05T03:56:22.765Z,7.70
2017-07-05T03:58:50.192Z,8.40
2017-07-05T04:01:18.160Z,8.27
2017-07-05T04:03:45.609Z,8.37
2017-07-05T04:06:13.049Z,7.97
2017-07-05T04:08:40.530Z,8.50
2017-07-05T04:11:07.977Z,8.00
2017-07-05T04:13:35.408Z,7.90
2017-07-05T04:16:02.875Z,8.17
2017-07-05T04:18:30.316Z,9.20
2017-07-05T04:20:57.747Z,9.07
2017-07-05T04:23:25.197Z,8.90
2017-07-05T04:25:52.633Z,8.57
2017-07-05T04:28:20.070Z,8.63
2017-07-05T04:30:47.508Z,8.80
2017-07-05T04:33:14.952Z,8.10
2017-07-05T04:35:42.391Z,11.63
2017-07-05T04:38:09.846Z,8.23
2017-07-05T04:40:37.264Z,8.03
2017-07-05T04:43:04.704Z,9.63
2017-07-05T04:45:32.150Z,7.70
2017-07-05T04:47:59.577Z,8.03
2017-07-05T04:50:27.019Z,7.40
2017-07-05T04:52:54.468Z,6.80
2017-07-05T04:55:21.941Z,7.50
2017-07-05T04:57:49.385Z,7.73
2017-07-05T05:00:16.949Z,7.90
2017-07-05T05:02:45.170Z,6.20
2017-07-05T05:05:12.629Z,7.30
2017-07-05T05:07:40.057Z,7.60
2017-07-05T05:10:07.501Z,7.00
2017-07-05T05:12:34.964Z,6.50
2017-07-05T05:15:02.400Z,5.60
2017-07-05T05:17:29.848Z,5.90
2017-07-05T05:19:57.298Z,6.20
2017-07-05T05:22:24.911Z,5.43
2017-07-05T05:24:52.480Z,6.03
2017-07-05T05:27:19.954Z,6.90
2017-07-05T05:29:48.160Z,6.00
2017-07-05T05:32:15.598Z,6.07
2017-07-05T05:34:43.092Z,7.03
2017-07-05T05:37:11.333Z,6.07
2017-07-05T05:39:38.780Z,6.03
2017-07-05T05:42:06.232Z,6.93
2017-07-05T05:44:33.671Z,5.70
2017-07-05T05:47:01.109Z,5.20
2017-07-05T05:49:28.557Z,32.00
2017-07-05T05:51:55.989Z,10.60
2017-07-05T05:54:23.423Z,6.13
2017-07-05T05:56:50.860Z,5.40
2017-07-05T05:59:18.317Z,5.50
2017-07-05T06:01:45.763Z,6.20
2017-07-05T06:04:13.225Z,5.53
2017-07-05T06:06:41.432Z,5.90
2017-07-05T06:09:08.869Z,5.90
2017-07-05T06:11:36.306Z,4.53
2017-07-05T06:14:03.764Z,5.17
2017-07-05T06:16:31.191Z,5.20
2017-07-05T06:18:58.620Z,5.13
2017-07-05T06:21:26.080Z,4.97
2017-07-05T06:23:53.548Z,5.10
2017-07-05T06:26:20.989Z,5.10
2017-07-05T06:28:48.418Z,4.60
2017-07-05T06:31:15.864Z,5.10
2017-07-05T06:33:43.281Z,5.00
2017-07-05T06:36:10.864Z,4.37
2017-07-05T06:38:38.301Z,5.43
2017-07-05T06:41:05.736Z,5.20
2017-07-05T06:43:33.171Z,5.00
2017-07-05T06:46:00.630Z,5.43
2017-07-05T06:48:28.059Z,6.17
2017-07-05T06:50:55.497Z,4.80
2017-07-05T06:53:22.952Z,4.60
2017-07-05T06:55:50.382Z,4.47
2017-07-05T06:58:17.837Z,3.93
2017-07-05T07:00:45.255Z,4.77
2017-07-05T07:03:12.700Z,5.00
2017-07-05T07:05:40.158Z,4.33
2017-07-05T07:08:07.613Z,4.27
2017-07-05T07:10:35.051Z,3.90
2017-07-05T07:13:02.489Z,3.93
2017-07-05T07:15:29.915Z,3.70
2017-07-05T07:17:57.350Z,3.90
2017-07-05T07:20:24.790Z,8.10
2017-07-05T07:22:52.214Z,4.43
2017-07-05T07:25:20.420Z,3.40
2017-07-05T07:27:47.872Z,3.50
2017-07-05T07:30:15.296Z,2.90
2017-07-05T07:32:42.736Z,3.30
2017-07-05T07:35:10.335Z,9.07
2017-07-05T07:37:38.538Z,4.87
2017-07-05T07:40:05.975Z,3.43
2017-07-05T07:42:33.399Z,3.90
2017-07-05T07:45:00.847Z,3.73
2017-07-05T07:47:28.386Z,3.20
2017-07-05T07:49:56.567Z,3.93
2017-07-05T07:52:24.032Z,3.90
2017-07-05T07:54:51.477Z,3.20
2017-07-05T07:57:19.020Z,4.10
2017-07-05T07:59:46.460Z,3.80
2017-07-05T08:02:13.891Z,3.20
2017-07-05T08:04:41.328Z,3.97
2017-07-05T08:07:08.757Z,4.20
2017-07-05T08:09:36.215Z,3.57
2017-07-05T08:12:03.771Z,4.13
2017-07-05T08:14:31.207Z,3.60
2017-07-05T08:16:58.640Z,3.80
2017-07-05T08:19:26.068Z,3.67
2017-07-05T08:21:53.508Z,3.43
2017-07-05T08:24:21.024Z,14.63
2017-07-05T08:26:49.228Z,4.70
2017-07-05T08:29:16.732Z,3.37
2017-07-05T08:31:44.947Z,3.20
2017-07-05T08:34:12.365Z,3.43
2017-07-05T08:36:39.799Z,3.10
2017-07-05T08:39:07.240Z,3.10
2017-07-05T08:41:34.744Z,3.60
2017-07-05T08:44:02.188Z,3.87
2017-07-05T08:46:29.628Z,4.80
2017-07-05T08:48:57.056Z,3.10
2017-07-05T08:51:24.484Z,3.73
2017-07-05T08:53:51.932Z,4.83
2017-07-05T08:56:19.361Z,3.40
2017-07-05T08:58:46.815Z,3.37
2017-07-05T09:01:14.230Z,3.80
2017-07-05T09:03:41.673Z,3.93
2017-07-05T09:06:09.104Z,3.20
2017-07-05T09:08:37.305Z,3.67
2017-07-05T09:11:04.736Z,2.53
2017-07-05T09:13:32.192Z,3.10
2017-07-05T09:15:59.625Z,2.73
2017-07-05T09:18:27.068Z,2.60
2017-07-05T09:20:54.512Z,3.20
2017-07-05T09:23:21.939Z,2.90
2017-07-05T09:25:49.377Z,2.33
2017-07-05T09:28:16.865Z,2.83
2017-07-05T09:30:44.325Z,2.87
2017-07-05T09:33:11.747Z,3.33
2017-07-05T09:35:39.189Z,8.50
2017-07-05T09:38:06.669Z,3.40
2017-07-05T09:40:34.134Z,2.87
2017-07-05T09:43:01.567Z,2.87
2017-07-05T09:45:29.007Z,3.10
2017-07-05T09:47:56.443Z,3.20
2017-07-05T09:50:24.656Z,2.80
2017-07-05T09:52:52.097Z,2.90
2017-07-05T09:55:19.573Z,3.37
2017-07-05T09:57:47.856Z,2.93
2017-07-05T10:00:16.053Z,2.80
2017-07-05T10:02:43.609Z,3.13
2017-07-05T10:05:11.077Z,3.10
2017-07-05T10:07:38.615Z,2.77
2017-07-05T10:10:06.048Z,2.97
2017-07-05T10:12:33.550Z,3.30
2017-07-05T10:15:00.985Z,3.37
2017-07-05T10:17:28.421Z,3.03
2017-07-05T10:19:56.625Z,3.50
2017-07-05T10:22:24.072Z,3.37
2017-07-05T10:24:51.518Z,3.10
2017-07-05T10:27:18.959Z,3.10
2017-07-05T10:29:46.604Z,3.10
2017-07-05T10:32:14.032Z,2.90
2017-07-05T10:34:41.468Z,2.70
2017-07-05T10:37:08.898Z,3.63
2017-07-05T10:39:36.361Z,3.93
2017-07-05T10:42:03.787Z,3.77
2017-07-05T10:44:31.209Z,3.30
2017-07-05T10:46:58.652Z,3.00
2017-07-05T10:49:26.076Z,3.30
2017-07-05T10:51:54.286Z,3.10
2017-07-05T10:54:21.749Z,3.10
2017-07-05T10:56:49.192Z,3.00
2017-07-05T10:59:16.659Z,2.87
2017-07-05T11:01:44.089Z,2.60
2017-07-05T11:04:11.522Z,3.43
2017-07-05T11:06:38.983Z,2.87
2017-07-05T11:09:06.412Z,3.60
2017-07-05T11:11:33.895Z,3.50
2017-07-05T11:14:01.340Z,3.70
2017-07-05T11:16:28.790Z,3.37
2017-07-05T11:18:56.229Z,3.30
2017-07-05T11:21:23.661Z,3.40
2017-07-05T11:23:51.112Z,6.63
2017-07-05T11:26:18.539Z,7.10
2017-07-05T11:28:46.744Z,4.40
2017-07-05T11:31:14.177Z,3.20
2017-07-05T11:33:41.626Z,3.10
2017-07-05T11:36:09.078Z,2.67
2017-07-05T11:38:36.605Z,4.17
2017-07-05T11:41:04.020Z,3.23
2017-07-05T11:43:31.460Z,2.93
2017-07-05T11:45:59.661Z,2.90
2017-07-05T11:48:27.195Z,3.17
2017-07-05T11:50:54.619Z,3.20
2017-07-05T11:53:22.044Z,3.77
2017-07-05T11:55:50.248Z,3.07
2017-07-05T11:58:17.679Z,3.50
2017-07-05T12:00:45.139Z,3.33
2017-07-05T12:03:12.605Z,2.97
2017-07-05T12:05:40.041Z,3.27
2017-07-05T12:08:07.578Z,3.20
2017-07-05T12:10:35.036Z,4.00
2017-07-05T12:13:02.491Z,3.17
2017-07-05T12:15:30.020Z,3.50
2017-07-05T12:17:57.449Z,3.20
2017-07-05T12:20:24.987Z,3.30
2017-07-05T12:22:52.444Z,3.00
2017-07-05T12:25:19.931Z,3.23
2017-07-05T12:27:47.436Z,3.27
2017-07-05T12:30:14.891Z,3.30
2017-07-05T12:32:42.326Z,3.27
2017-07-05T12:35:09.809Z,3.20
2017-07-05T12:37:37.242Z,3.27
2017-07-05T12:40:05.573Z,2.80
2017-07-05T12:42:33.115Z,2.87
2017-07-05T12:45:00.544Z,2.80
2017-07-05T12:47:27.983Z,2.70
2017-07-05T12:49:55.395Z,3.13
2017-07-05T12:52:22.837Z,2.67
2017-07-05T12:54:50.269Z,3.30
2017-07-05T12:57:17.713Z,3.40
2017-07-05T12:59:45.584Z,3.30
2017-07-05T13:02:13.046Z,2.87
2017-07-05T13:04:40.480Z,3.07
2017-07-05T13:07:07.905Z,3.00
2017-07-05T13:09:35.348Z,3.03
2017-07-05T13:12:02.773Z,2.83
2017-07-05T13:14:30.239Z,2.93
2017-07-05T13:16:57.673Z,2.60
2017-07-05T13:19:25.171Z,2.60
2017-07-05T13:21:52.711Z,2.50
2017-07-05T13:24:20.145Z,2.93
2017-07-05T13:26:47.577Z,3.27
2017-07-05T13:29:15.020Z,3.30
2017-07-05T13:31:42.451Z,3.00
2017-07-05T13:34:09.908Z,2.57
2017-07-05T13:36:37.341Z,2.70
2017-07-05T13:39:04.772Z,2.83
2017-07-05T13:41:32.213Z,3.30
2017-07-05T13:43:59.640Z,3.00
2017-07-05T13:46:27.076Z,3.00
2017-07-05T13:48:54.527Z,2.93
2017-07-05T13:51:21.997Z,2.90
2017-07-05T13:53:49.443Z,2.80
2017-07-05T13:56:16.878Z,3.20
2017-07-05T13:58:44.332Z,3.57
2017-07-05T14:01:11.766Z,3.60
2017-07-05T14:03:39.192Z,3.30
2017-07-05T14:06:06.629Z,3.10
2017-07-05T14:08:34.075Z,3.00
2017-07-05T14:11:01.511Z,3.13
2017-07-05T14:13:28.961Z,3.30
2017-07-05T14:15:56.389Z,3.07
2017-07-05T14:18:23.835Z,2.90
2017-07-05T14:20:51.268Z,3.20
2017-07-05T14:23:19.467Z,3.33
2017-07-05T14:25:46.905Z,3.80
2017-07-05T14:28:14.402Z,3.23
2017-07-05T14:30:42.587Z,3.20
2017-07-05T14:33:10.036Z,3.10
2017-07-05T14:35:37.464Z,3.10
2017-07-05T14:38:04.913Z,3.10
2017-07-05T14:40:32.339Z,3.50
2017-07-05T14:42:59.913Z,3.43
2017-07-05T14:45:27.348Z,3.47
2017-07-05T14:47:54.788Z,3.50
2017-07-05T14:50:22.288Z,3.80
2017-07-05T14:52:49.717Z,3.90
2017-07-05T14:55:17.150Z,3.73
2017-07-05T14:57:44.581Z,3.60
2017-07-05T15:00:12.037Z,3.57
2017-07-05T15:02:39.498Z,3.33
2017-07-05T15:05:06.945Z,3.23
2017-07-05T15:07:34.499Z,3.03
2017-07-05T15:10:02.699Z,3.40
2017-07-05T15:12:30.159Z,3.20
2017-07-05T15:14:57.581Z,3.83
2017-07-05T15:17:25.020Z,3.20
2017-07-05T15:19:52.453Z,4.27
2017-07-05T15:22:19.890Z,3.60
2017-07-05T15:24:47.382Z,3.30
2017-07-05T15:27:14.818Z,5.93
2017-07-05T15:29:42.305Z,4.53
2017-07-05T15:32:10.517Z,3.80
2017-07-05T15:34:37.957Z,3.73
2017-07-05T15:37:05.440Z,6.37
2017-07-05T15:39:32.864Z,5.10
2017-07-05T15:42:00.389Z,4.90
2017-07-05T15:44:27.809Z,4.17
2017-07-05T15:46:55.241Z,3.90
2017-07-05T15:49:22.684Z,14.30
2017-07-05T15:51:50.108Z,4.40
2017-07-05T15:54:17.615Z,4.60
2017-07-05T15:56:45.039Z,3.90
2017-07-05T15:59:12.547Z,4.00
2017-07-05T16:01:40.742Z,3.57
2017-07-05T16:04:08.176Z,4.40
2017-07-05T16:06:35.658Z,3.83
2017-07-05T16:09:03.105Z,4.00
2017-07-05T16:11:30.538Z,4.00
2017-07-05T16:13:57.992Z,4.27
2017-07-05T16:16:25.435Z,4.40
2017-07-05T16:18:52.871Z,6.17
2017-07-05T16:21:20.366Z,4.03
2017-07-05T16:23:47.791Z,4.87
2017-07-05T16:26:15.997Z,4.70
2017-07-05T16:28:43.433Z,3.80
2017-07-05T16:31:10.895Z,3.97
2017-07-05T16:33:38.334Z,3.70
2017-07-05T16:36:05.779Z,5.00
2017-07-05T16:38:33.207Z,3.80
2017-07-05T16:41:00.637Z,3.60
2017-07-05T16:43:28.073Z,5.83
2017-07-05T16:45:55.581Z,3.30
2017-07-05T16:48:23.781Z,4.83
2017-07-05T16:50:51.265Z,4.20
2017-07-05T16:53:18.701Z,4.70
2017-07-05T16:55:46.121Z,4.27
2017-07-05T16:58:13.571Z,3.97
2017-07-05T17:00:40.988Z,5.07
2017-07-05T17:03:08.450Z,4.50
2017-07-05T17:05:35.888Z,3.60
2017-07-05T17:08:03.331Z,3.97
2017-07-05T17:10:30.761Z,5.57
2017-07-05T17:12:58.199Z,5.53
2017-07-05T17:15:25.628Z,4.37
2017-07-05T17:17:53.082Z,5.10
2017-07-05T17:20:20.536Z,4.80
2017-07-05T17:22:48.811Z,4.03
2017-07-05T17:25:16.247Z,4.50
2017-07-05T17:27:43.680Z,4.60
2017-07-05T17:30:11.196Z,5.07
2017-07-05T17:32:38.721Z,3.83
2017-07-05T17:35:09.378Z,5.10
2017-07-05T17:37:36.805Z,4.27
2017-07-05T17:40:04.313Z,3.93
2017-07-05T17:42:31.757Z,3.70
2017-07-05T17:44:59.316Z,4.10
2017-07-05T17:47:27.534Z,4.77
2017-07-05T17:49:55.080Z,3.80
2017-07-05T17:52:22.514Z,3.90
2017-07-05T17:54:49.981Z,4.47
2017-07-05T17:57:17.887Z,3.60
2017-07-05T17:59:45.332Z,4.17
2017-07-05T18:02:12.778Z,4.63
2017-07-05T18:04:40.220Z,4.77
2017-07-05T18:07:07.677Z,4.07
2017-07-05T18:09:35.112Z,4.00
2017-07-05T18:12:02.549Z,5.30
2017-07-05T18:14:29.980Z,4.40
2017-07-05T18:16:57.417Z,3.90
2017-07-05T18:19:24.853Z,4.00
2017-07-05T18:21:53.076Z,4.00
2017-07-05T18:24:20.535Z,3.60
2017-07-05T18:26:48.068Z,4.10
2017-07-05T18:29:15.504Z,3.90
2017-07-05T18:31:43.223Z,4.90
2017-07-05T18:34:10.669Z,8.03
2017-07-05T18:36:38.092Z,6.10
2017-07-05T18:39:05.776Z,6.27
2017-07-05T18:41:33.203Z,4.73
2017-07-05T18:44:00.661Z,4.30
2017-07-05T18:46:28.103Z,4.20
2017-07-05T18:48:55.570Z,3.73
2017-07-05T18:51:23.003Z,9.13
2017-07-05T18:53:50.443Z,11.57
2017-07-05T18:56:17.881Z,5.73
2017-07-05T18:58:45.325Z,5.10
2017-07-05T19:01:12.756Z,7.30
2017-07-05T19:03:40.202Z,4.30
2017-07-05T19:06:07.638Z,8.13
2017-07-05T19:08:35.094Z,9.20
2017-07-05T19:11:02.534Z,9.53
2017-07-05T19:13:29.997Z,7.50
2017-07-05T19:15:57.432Z,5.23
2017-07-05T19:18:24.889Z,5.17
2017-07-05T19:20:52.296Z,5.30
2017-07-05T19:23:19.793Z,4.73
2017-07-05T19:25:47.997Z,4.87
2017-07-05T19:28:16.009Z,8.17
2017-07-05T19:30:44.252Z,8.73
2017-07-05T19:33:11.746Z,7.50
2017-07-05T19:35:40.012Z,4.73
2017-07-05T19:38:07.462Z,4.23
2017-07-05T19:40:34.890Z,5.17
2017-07-05T19:43:02.323Z,5.07
2017-07-05T19:45:29.754Z,4.03
2017-07-05T19:47:57.223Z,4.70
2017-07-05T19:50:24.650Z,4.93
2017-07-05T19:52:52.088Z,4.80
2017-07-05T19:55:19.532Z,4.90
2017-07-05T19:57:46.964Z,4.03
2017-07-05T20:00:15.161Z,4.13
2017-07-05T20:02:42.593Z,4.00
2017-07-05T20:05:10.028Z,3.97
2017-07-05T20:07:37.463Z,4.20
2017-07-05T20:10:04.914Z,5.20
2017-07-05T20:12:32.337Z,4.47
2017-07-05T20:14:59.845Z,4.60
2017-07-05T20:17:27.279Z,4.90
2017-07-05T20:19:54.708Z,5.17
2017-07-05T20:22:22.147Z,4.70
2017-07-05T20:24:49.577Z,4.77
2017-07-05T20:27:17.031Z,5.37
2017-07-05T20:29:44.715Z,5.30
2017-07-05T20:32:12.137Z,4.97
2017-07-05T20:34:39.634Z,6.03
2017-07-05T20:37:07.106Z,5.60
2017-07-05T20:39:34.572Z,5.30
2017-07-05T20:42:02.017Z,5.60
2017-07-05T20:44:29.778Z,6.27
2017-07-05T20:46:57.247Z,8.10
2017-07-05T20:49:25.517Z,6.57
2017-07-05T20:51:52.978Z,6.40
2017-07-05T20:54:20.614Z,6.20
2017-07-05T20:56:48.114Z,5.93
2017-07-05T20:59:15.590Z,6.30
2017-07-05T21:01:43.074Z,7.60
2017-07-05T21:04:10.550Z,15.80
2017-07-05T21:06:38.026Z,20.03
2017-07-05T21:09:06.257Z,7.83
2017-07-05T21:11:33.722Z,13.13
2017-07-05T21:14:02.002Z,7.30
2017-07-05T21:16:29.466Z,8.10
2017-07-05T21:18:56.938Z,6.50
2017-07-05T21:21:24.435Z,7.00
2017-07-05T21:23:51.902Z,6.37
2017-07-05T21:26:19.401Z,7.80
2017-07-05T21:28:46.870Z,6.40
2017-07-05T21:31:14.395Z,6.57
2017-07-05T21:33:42.663Z,7.50
2017-07-05T21:36:10.135Z,6.20
2017-07-05T21:38:37.590Z,6.67
2017-07-05T21:41:05.061Z,6.50
2017-07-05T21:43:32.561Z,6.77
2017-07-05T21:46:00.053Z,6.70
2017-07-05T21:48:27.506Z,5.67
2017-07-05T21:50:55.774Z,6.30
2017-07-05T21:53:24.011Z,6.63
2017-07-05T21:55:51.482Z,6.63
2017-07-05T21:58:19.718Z,6.63
2017-07-05T22:00:47.177Z,6.80
2017-07-05T22:03:15.415Z,6.63
2017-07-05T22:05:42.871Z,7.07
2017-07-05T22:08:10.342Z,7.00
2017-07-05T22:10:37.839Z,6.97
2017-07-05T22:13:05.313Z,6.27
2017-07-05T22:15:33.699Z,6.90
2017-07-05T22:18:01.166Z,7.30
2017-07-05T22:20:28.638Z,7.03
2017-07-05T22:22:56.114Z,6.70
2017-07-05T22:25:24.359Z,6.50
2017-07-05T22:27:52.598Z,7.97
2017-07-05T22:30:20.067Z,7.00
2017-07-05T22:32:48.337Z,7.20
2017-07-05T22:35:16.706Z,6.80
2017-07-05T22:37:44.174Z,6.60
2017-07-05T22:40:11.698Z,6.90
2017-07-05T22:42:39.264Z,5.80
2017-07-05T22:45:06.750Z,6.30
2017-07-05T22:47:34.206Z,6.20
2017-07-05T22:50:01.766Z,6.30
2017-07-05T22:52:30.018Z,6.70
2017-07-05T22:54:58.290Z,6.63
2017-07-05T22:57:25.889Z,6.53
2017-07-05T22:59:53.351Z,6.00
2017-07-05T23:02:20.818Z,7.27
2017-07-05T23:04:49.091Z,6.40
2017-07-05T23:07:16.570Z,6.40
2017-07-05T23:09:44.070Z,6.70
2017-07-05T23:12:12.359Z,7.03
2017-07-05T23:14:39.814Z,6.23
2017-07-05T23:17:07.286Z,7.10
2017-07-05T23:19:34.751Z,6.17
2017-07-05T23:22:02.965Z,6.63
2017-07-05T23:24:30.447Z,7.10
2017-07-05T23:26:57.877Z,6.10
2017-07-05T23:29:25.313Z,8.20
2017-07-05T23:31:52.752Z,6.33
2017-07-05T23:34:20.213Z,6.47
2017-07-05T23:36:47.669Z,7.10
2017-07-05T23:39:15.891Z,6.50
2017-07-05T23:41:43.353Z,7.60
2017-07-05T23:44:10.801Z,6.67
2017-07-05T23:46:38.240Z,7.70
2017-07-05T23:49:05.681Z,7.10
2017-07-05T23:51:33.113Z,6.80
2017-07-05T23:54:00.559Z,7.03
2017-07-05T23:56:27.989Z,6.83
2017-07-05T23:58:55.419Z,7.30
